sensor_id;sensor_type;location;lat;lon;timestamp;P1;durP1;ratioP1;P2;durP2;ratioP2
11500;SDS011;5807;51.606;7.624;2022-11-20T00:01:25;25.37;;;16.87;;
11500;SDS011;5807;51.606;7.624;2022-11-20T00:03:53;25.93;;;17.00;;
11500;SDS011;5807;51.606;7.624;2022-11-20T00:06:23;26.67;;;18.07;;
11500;SDS011;5807;51.606;7.624;2022-11-20T00:08:50;27.17;;;18.20;;
11500;SDS011;5807;51.606;7.624;2022-11-20T00:11:18;28.30;;;17.63;;
11500;SDS011;5807;51.606;7.624;2022-11-20T00:13:46;29.13;;;18.20;;
11500;SDS011;5807;51.606;7.624;2022-11-20T00:16:14;29.97;;;18.30;;
11500;SDS011;5807;51.606;7.624;2022-11-20T00:18:43;30.10;;;19.37;;
11500;SDS011;5807;51.606;7.624;2022-11-20T00:21:11;28.30;;;19.30;;
11500;SDS011;5807;51.606;7.624;2022-11-20T00:23:40;29.20;;;18.17;;
11500;SDS011;5807;51.606;7.624;2022-11-20T00:26:07;29.03;;;18.17;;
11500;SDS011;5807;51.606;7.624;2022-11-20T00:28:36;29.93;;;18.30;;
11500;SDS011;5807;51.606;7.624;2022-11-20T00:31:03;27.73;;;18.00;;
11500;SDS011;5807;51.606;7.624;2022-11-20T00:33:32;25.97;;;16.33;;
11500;SDS011;5807;51.606;7.624;2022-11-20T00:35:59;23.27;;;14.90;;
11500;SDS011;5807;51.606;7.624;2022-11-20T00:38:27;22.47;;;15.30;;
11500;SDS011;5807;51.606;7.624;2022-11-20T00:40:57;24.20;;;16.30;;
11500;SDS011;5807;51.606;7.624;2022-11-20T00:43:24;25.00;;;17.13;;
11500;SDS011;5807;51.606;7.624;2022-11-20T00:45:55;27.97;;;16.93;;
11500;SDS011;5807;51.606;7.624;2022-11-20T00:48:23;28.83;;;17.73;;
11500;SDS011;5807;51.606;7.624;2022-11-20T00:50:49;24.37;;;17.27;;
11500;SDS011;5807;51.606;7.624;2022-11-20T00:53:17;26.43;;;17.57;;
11500;SDS011;5807;51.606;7.624;2022-11-20T00:55:51;27.40;;;18.10;;
11500;SDS011;5807;51.606;7.624;2022-11-20T00:58:20;22.43;;;15.77;;
11500;SDS011;5807;51.606;7.624;2022-11-20T01:00:48;23.53;;;14.90;;
11500;SDS011;5807;51.606;7.624;2022-11-20T01:03:15;24.20;;;15.03;;
11500;SDS011;5807;51.606;7.624;2022-11-20T01:05:42;24.97;;;15.33;;
11500;SDS011;5807;51.606;7.624;2022-11-20T01:08:09;24.73;;;14.77;;
11500;SDS011;5807;51.606;7.624;2022-11-20T01:10:35;24.63;;;15.17;;
11500;SDS011;5807;51.606;7.624;2022-11-20T01:13:03;25.90;;;15.20;;
11500;SDS011;5807;51.606;7.624;2022-11-20T01:15:48;25.60;;;15.37;;
11500;SDS011;5807;51.606;7.624;2022-11-20T01:18:15;20.53;;;14.40;;
11500;SDS011;5807;51.606;7.624;2022-11-20T01:20:42;24.73;;;14.97;;
11500;SDS011;5807;51.606;7.624;2022-11-20T01:23:16;24.63;;;15.60;;
11500;SDS011;5807;51.606;7.624;2022-11-20T01:25:43;22.20;;;14.93;;
11500;SDS011;5807;51.606;7.624;2022-11-20T01:28:10;22.77;;;16.00;;
11500;SDS011;5807;51.606;7.624;2022-11-20T01:30:36;20.60;;;14.03;;
11500;SDS011;5807;51.606;7.624;2022-11-20T01:33:05;22.97;;;14.70;;
11500;SDS011;5807;51.606;7.624;2022-11-20T01:35:32;21.17;;;14.57;;
11500;SDS011;5807;51.606;7.624;2022-11-20T01:37:59;21.60;;;13.47;;
11500;SDS011;5807;51.606;7.624;2022-11-20T01:40:25;23.20;;;15.00;;
11500;SDS011;5807;51.606;7.624;2022-11-20T01:42:53;24.77;;;16.23;;
11500;SDS011;5807;51.606;7.624;2022-11-20T01:45:59;25.33;;;15.63;;
11500;SDS011;5807;51.606;7.624;2022-11-20T01:48:32;20.87;;;13.67;;
11500;SDS011;5807;51.606;7.624;2022-11-20T01:51:02;21.23;;;14.53;;
11500;SDS011;5807;51.606;7.624;2022-11-20T01:53:31;19.07;;;13.97;;
11500;SDS011;5807;51.606;7.624;2022-11-20T01:56:01;24.10;;;15.20;;
11500;SDS011;5807;51.606;7.624;2022-11-20T01:58:32;22.27;;;16.20;;
11500;SDS011;5807;51.606;7.624;2022-11-20T02:01:02;25.47;;;16.80;;
11500;SDS011;5807;51.606;7.624;2022-11-20T02:03:31;26.13;;;16.63;;
11500;SDS011;5807;51.606;7.624;2022-11-20T02:06:01;24.17;;;16.37;;
11500;SDS011;5807;51.606;7.624;2022-11-20T02:08:31;26.40;;;16.97;;
11500;SDS011;5807;51.606;7.624;2022-11-20T02:10:59;23.50;;;15.87;;
11500;SDS011;5807;51.606;7.624;2022-11-20T02:13:26;23.77;;;17.27;;
11500;SDS011;5807;51.606;7.624;2022-11-20T02:16:12;23.47;;;16.07;;
11500;SDS011;5807;51.606;7.624;2022-11-20T02:18:43;21.33;;;14.57;;
11500;SDS011;5807;51.606;7.624;2022-11-20T02:21:13;21.57;;;13.50;;
11500;SDS011;5807;51.606;7.624;2022-11-20T02:23:57;21.90;;;13.60;;
11500;SDS011;5807;51.606;7.624;2022-11-20T02:26:26;20.53;;;13.53;;
11500;SDS011;5807;51.606;7.624;2022-11-20T02:35:39;20.03;;;13.20;;
11500;SDS011;5807;51.606;7.624;2022-11-20T02:38:07;18.23;;;12.73;;
11500;SDS011;5807;51.606;7.624;2022-11-20T02:40:36;16.57;;;12.03;;
11500;SDS011;5807;51.606;7.624;2022-11-20T02:43:02;20.83;;;13.27;;
11500;SDS011;5807;51.606;7.624;2022-11-20T02:45:30;20.37;;;13.93;;
11500;SDS011;5807;51.606;7.624;2022-11-20T02:47:57;22.30;;;14.47;;
11500;SDS011;5807;51.606;7.624;2022-11-20T02:50:23;22.90;;;14.50;;
11500;SDS011;5807;51.606;7.624;2022-11-20T02:52:50;20.70;;;13.43;;
11500;SDS011;5807;51.606;7.624;2022-11-20T02:55:17;18.40;;;12.87;;
11500;SDS011;5807;51.606;7.624;2022-11-20T02:57:46;23.23;;;14.40;;
11500;SDS011;5807;51.606;7.624;2022-11-20T03:00:13;18.13;;;13.43;;
11500;SDS011;5807;51.606;7.624;2022-11-20T03:02:40;21.53;;;14.17;;
11500;SDS011;5807;51.606;7.624;2022-11-20T03:05:07;17.03;;;12.47;;
11500;SDS011;5807;51.606;7.624;2022-11-20T03:07:34;19.77;;;13.30;;
11500;SDS011;5807;51.606;7.624;2022-11-20T03:10:01;22.00;;;14.40;;
11500;SDS011;5807;51.606;7.624;2022-11-20T03:12:27;19.83;;;13.17;;
11500;SDS011;5807;51.606;7.624;2022-11-20T03:14:56;21.70;;;14.00;;
11500;SDS011;5807;51.606;7.624;2022-11-20T03:17:23;24.73;;;14.47;;
11500;SDS011;5807;51.606;7.624;2022-11-20T03:19:50;20.37;;;13.57;;
11500;SDS011;5807;51.606;7.624;2022-11-20T03:22:17;20.40;;;13.87;;
11500;SDS011;5807;51.606;7.624;2022-11-20T03:24:44;20.63;;;14.20;;
11500;SDS011;5807;51.606;7.624;2022-11-20T03:27:11;19.40;;;13.47;;
11500;SDS011;5807;51.606;7.624;2022-11-20T03:29:38;19.83;;;13.17;;
11500;SDS011;5807;51.606;7.624;2022-11-20T03:32:06;19.07;;;12.60;;
11500;SDS011;5807;51.606;7.624;2022-11-20T03:34:43;18.47;;;12.97;;
11500;SDS011;5807;51.606;7.624;2022-11-20T03:37:10;20.47;;;13.63;;
11500;SDS011;5807;51.606;7.624;2022-11-20T03:39:36;21.07;;;12.90;;
11500;SDS011;5807;51.606;7.624;2022-11-20T03:42:03;18.73;;;13.00;;
11500;SDS011;5807;51.606;7.624;2022-11-20T03:44:50;16.30;;;11.73;;
11500;SDS011;5807;51.606;7.624;2022-11-20T03:47:19;19.47;;;12.77;;
11500;SDS011;5807;51.606;7.624;2022-11-20T03:49:46;18.47;;;13.40;;
11500;SDS011;5807;51.606;7.624;2022-11-20T03:52:13;15.93;;;12.17;;
11500;SDS011;5807;51.606;7.624;2022-11-20T03:54:39;17.07;;;13.27;;
11500;SDS011;5807;51.606;7.624;2022-11-20T03:57:06;16.63;;;13.03;;
11500;SDS011;5807;51.606;7.624;2022-11-20T03:59:33;17.47;;;11.83;;
11500;SDS011;5807;51.606;7.624;2022-11-20T04:02:00;20.47;;;12.83;;
11500;SDS011;5807;51.606;7.624;2022-11-20T04:04:28;18.07;;;13.27;;
11500;SDS011;5807;51.606;7.624;2022-11-20T04:06:55;19.43;;;13.40;;
11500;SDS011;5807;51.606;7.624;2022-11-20T04:09:22;13.13;;;10.77;;
11500;SDS011;5807;51.606;7.624;2022-11-20T04:11:49;15.43;;;12.47;;
11500;SDS011;5807;51.606;7.624;2022-11-20T04:14:16;18.13;;;12.50;;
11500;SDS011;5807;51.606;7.624;2022-11-20T04:16:43;17.87;;;12.37;;
11500;SDS011;5807;51.606;7.624;2022-11-20T04:19:13;18.53;;;12.73;;
11500;SDS011;5807;51.606;7.624;2022-11-20T04:21:43;18.87;;;11.63;;
11500;SDS011;5807;51.606;7.624;2022-11-20T04:24:10;16.80;;;11.87;;
11500;SDS011;5807;51.606;7.624;2022-11-20T04:26:38;16.43;;;13.27;;
11500;SDS011;5807;51.606;7.624;2022-11-20T04:29:05;17.80;;;11.83;;
11500;SDS011;5807;51.606;7.624;2022-11-20T04:31:32;16.70;;;12.10;;
11500;SDS011;5807;51.606;7.624;2022-11-20T04:34:00;23.97;;;12.13;;
11500;SDS011;5807;51.606;7.624;2022-11-20T04:36:29;17.80;;;12.07;;
11500;SDS011;5807;51.606;7.624;2022-11-20T04:38:58;17.30;;;12.13;;
11500;SDS011;5807;51.606;7.624;2022-11-20T04:41:26;17.67;;;13.00;;
11500;SDS011;5807;51.606;7.624;2022-11-20T04:43:54;16.77;;;12.53;;
11500;SDS011;5807;51.606;7.624;2022-11-20T04:46:24;17.93;;;12.53;;
11500;SDS011;5807;51.606;7.624;2022-11-20T04:48:52;18.00;;;12.10;;
11500;SDS011;5807;51.606;7.624;2022-11-20T04:51:19;18.73;;;13.37;;
11500;SDS011;5807;51.606;7.624;2022-11-20T04:53:46;13.73;;;10.77;;
11500;SDS011;5807;51.606;7.624;2022-11-20T04:56:14;19.87;;;13.97;;
11500;SDS011;5807;51.606;7.624;2022-11-20T04:58:41;24.17;;;14.93;;
11500;SDS011;5807;51.606;7.624;2022-11-20T05:01:09;18.13;;;13.17;;
11500;SDS011;5807;51.606;7.624;2022-11-20T05:03:37;20.00;;;13.17;;
11500;SDS011;5807;51.606;7.624;2022-11-20T05:06:05;18.07;;;12.70;;
11500;SDS011;5807;51.606;7.624;2022-11-20T05:08:33;22.30;;;13.60;;
11500;SDS011;5807;51.606;7.624;2022-11-20T05:11:01;17.17;;;12.97;;
11500;SDS011;5807;51.606;7.624;2022-11-20T05:13:29;19.53;;;13.03;;
11500;SDS011;5807;51.606;7.624;2022-11-20T05:16:00;18.13;;;12.67;;
11500;SDS011;5807;51.606;7.624;2022-11-20T05:18:28;18.10;;;13.60;;
11500;SDS011;5807;51.606;7.624;2022-11-20T05:20:55;18.47;;;13.37;;
11500;SDS011;5807;51.606;7.624;2022-11-20T05:23:22;16.93;;;13.80;;
11500;SDS011;5807;51.606;7.624;2022-11-20T05:25:51;19.63;;;12.83;;
11500;SDS011;5807;51.606;7.624;2022-11-20T05:28:18;17.70;;;13.03;;
11500;SDS011;5807;51.606;7.624;2022-11-20T05:30:47;17.80;;;12.93;;
11500;SDS011;5807;51.606;7.624;2022-11-20T05:33:13;21.60;;;12.90;;
11500;SDS011;5807;51.606;7.624;2022-11-20T05:35:40;16.33;;;12.00;;
11500;SDS011;5807;51.606;7.624;2022-11-20T05:38:07;16.83;;;12.70;;
11500;SDS011;5807;51.606;7.624;2022-11-20T05:40:35;19.83;;;12.93;;
11500;SDS011;5807;51.606;7.624;2022-11-20T05:43:02;16.03;;;11.83;;
11500;SDS011;5807;51.606;7.624;2022-11-20T05:45:29;17.13;;;12.40;;
11500;SDS011;5807;51.606;7.624;2022-11-20T05:47:58;17.87;;;12.20;;
11500;SDS011;5807;51.606;7.624;2022-11-20T05:50:26;15.53;;;11.83;;
11500;SDS011;5807;51.606;7.624;2022-11-20T05:52:53;17.93;;;12.13;;
11500;SDS011;5807;51.606;7.624;2022-11-20T05:55:20;20.30;;;13.30;;
11500;SDS011;5807;51.606;7.624;2022-11-20T05:57:47;17.50;;;12.17;;
11500;SDS011;5807;51.606;7.624;2022-11-20T06:00:14;16.70;;;11.97;;
11500;SDS011;5807;51.606;7.624;2022-11-20T06:02:41;17.10;;;12.23;;
11500;SDS011;5807;51.606;7.624;2022-11-20T06:05:10;16.07;;;11.50;;
11500;SDS011;5807;51.606;7.624;2022-11-20T06:07:37;17.03;;;12.33;;
11500;SDS011;5807;51.606;7.624;2022-11-20T06:10:04;16.73;;;11.93;;
11500;SDS011;5807;51.606;7.624;2022-11-20T06:12:31;17.77;;;12.10;;
11500;SDS011;5807;51.606;7.624;2022-11-20T06:14:58;17.60;;;12.07;;
11500;SDS011;5807;51.606;7.624;2022-11-20T06:17:25;13.30;;;11.23;;
11500;SDS011;5807;51.606;7.624;2022-11-20T06:19:52;16.77;;;11.57;;
11500;SDS011;5807;51.606;7.624;2022-11-20T06:22:21;16.27;;;11.77;;
11500;SDS011;5807;51.606;7.624;2022-11-20T06:24:48;19.77;;;12.57;;
11500;SDS011;5807;51.606;7.624;2022-11-20T06:27:15;17.77;;;12.63;;
11500;SDS011;5807;51.606;7.624;2022-11-20T06:29:42;15.73;;;12.33;;
11500;SDS011;5807;51.606;7.624;2022-11-20T06:32:09;18.43;;;12.60;;
11500;SDS011;5807;51.606;7.624;2022-11-20T06:34:36;19.47;;;12.73;;
11500;SDS011;5807;51.606;7.624;2022-11-20T06:37:03;20.00;;;13.10;;
11500;SDS011;5807;51.606;7.624;2022-11-20T06:39:31;20.37;;;13.40;;
11500;SDS011;5807;51.606;7.624;2022-11-20T06:41:58;16.80;;;12.73;;
11500;SDS011;5807;51.606;7.624;2022-11-20T06:44:26;18.47;;;13.53;;
11500;SDS011;5807;51.606;7.624;2022-11-20T06:46:53;19.43;;;13.87;;
11500;SDS011;5807;51.606;7.624;2022-11-20T06:49:19;19.07;;;13.10;;
11500;SDS011;5807;51.606;7.624;2022-11-20T06:51:47;19.13;;;12.57;;
11500;SDS011;5807;51.606;7.624;2022-11-20T06:54:13;17.70;;;12.73;;
11500;SDS011;5807;51.606;7.624;2022-11-20T06:56:42;18.63;;;13.53;;
11500;SDS011;5807;51.606;7.624;2022-11-20T06:59:22;20.00;;;13.87;;
11500;SDS011;5807;51.606;7.624;2022-11-20T07:01:49;18.40;;;14.20;;
11500;SDS011;5807;51.606;7.624;2022-11-20T07:04:16;20.27;;;14.33;;
11500;SDS011;5807;51.606;7.624;2022-11-20T07:06:43;25.83;;;15.10;;
11500;SDS011;5807;51.606;7.624;2022-11-20T07:09:10;22.43;;;15.53;;
11500;SDS011;5807;51.606;7.624;2022-11-20T07:11:36;19.70;;;13.70;;
11500;SDS011;5807;51.606;7.624;2022-11-20T07:14:05;22.93;;;16.13;;
11500;SDS011;5807;51.606;7.624;2022-11-20T07:16:32;24.17;;;16.97;;
11500;SDS011;5807;51.606;7.624;2022-11-20T07:18:59;22.83;;;15.83;;
11500;SDS011;5807;51.606;7.624;2022-11-20T07:21:26;22.67;;;15.87;;
11500;SDS011;5807;51.606;7.624;2022-11-20T07:23:53;21.40;;;16.67;;
11500;SDS011;5807;51.606;7.624;2022-11-20T07:26:20;22.23;;;16.17;;
11500;SDS011;5807;51.606;7.624;2022-11-20T07:28:47;22.03;;;15.70;;
11500;SDS011;5807;51.606;7.624;2022-11-20T07:31:15;22.97;;;16.30;;
11500;SDS011;5807;51.606;7.624;2022-11-20T07:33:42;24.00;;;15.73;;
11500;SDS011;5807;51.606;7.624;2022-11-20T07:36:09;24.83;;;17.27;;
11500;SDS011;5807;51.606;7.624;2022-11-20T07:38:36;22.77;;;15.47;;
11500;SDS011;5807;51.606;7.624;2022-11-20T07:41:04;22.17;;;14.83;;
11500;SDS011;5807;51.606;7.624;2022-11-20T07:43:31;22.40;;;15.77;;
11500;SDS011;5807;51.606;7.624;2022-11-20T07:45:58;23.97;;;15.67;;
11500;SDS011;5807;51.606;7.624;2022-11-20T07:48:27;22.77;;;16.40;;
11500;SDS011;5807;51.606;7.624;2022-11-20T07:50:54;26.70;;;16.23;;
11500;SDS011;5807;51.606;7.624;2022-11-20T07:53:21;21.33;;;15.73;;
11500;SDS011;5807;51.606;7.624;2022-11-20T07:55:48;21.77;;;15.60;;
11500;SDS011;5807;51.606;7.624;2022-11-20T07:58:17;24.83;;;16.53;;
11500;SDS011;5807;51.606;7.624;2022-11-20T08:00:44;22.83;;;16.60;;
11500;SDS011;5807;51.606;7.624;2022-11-20T08:03:11;21.33;;;15.97;;
11500;SDS011;5807;51.606;7.624;2022-11-20T08:05:39;26.03;;;17.33;;
11500;SDS011;5807;51.606;7.624;2022-11-20T08:08:06;23.53;;;17.83;;
11500;SDS011;5807;51.606;7.624;2022-11-20T08:10:33;24.10;;;18.47;;
11500;SDS011;5807;51.606;7.624;2022-11-20T08:13:00;24.93;;;17.37;;
11500;SDS011;5807;51.606;7.624;2022-11-20T08:15:47;25.90;;;17.53;;
11500;SDS011;5807;51.606;7.624;2022-11-20T08:18:15;25.13;;;18.50;;
11500;SDS011;5807;51.606;7.624;2022-11-20T08:20:44;25.37;;;19.00;;
11500;SDS011;5807;51.606;7.624;2022-11-20T08:23:11;27.10;;;19.50;;
11500;SDS011;5807;51.606;7.624;2022-11-20T08:25:38;31.67;;;20.63;;
11500;SDS011;5807;51.606;7.624;2022-11-20T08:28:05;29.17;;;19.90;;
11500;SDS011;5807;51.606;7.624;2022-11-20T08:30:35;27.13;;;20.13;;
11500;SDS011;5807;51.606;7.624;2022-11-20T08:33:03;29.63;;;20.00;;
11500;SDS011;5807;51.606;7.624;2022-11-20T08:35:32;28.47;;;19.80;;
11500;SDS011;5807;51.606;7.624;2022-11-20T08:38:02;27.47;;;20.23;;
11500;SDS011;5807;51.606;7.624;2022-11-20T08:40:29;27.37;;;20.63;;
11500;SDS011;5807;51.606;7.624;2022-11-20T08:42:56;29.47;;;20.40;;
11500;SDS011;5807;51.606;7.624;2022-11-20T08:45:24;26.67;;;18.07;;
11500;SDS011;5807;51.606;7.624;2022-11-20T08:47:50;26.93;;;18.23;;
11500;SDS011;5807;51.606;7.624;2022-11-20T08:50:17;27.77;;;19.07;;
11500;SDS011;5807;51.606;7.624;2022-11-20T08:52:44;26.67;;;18.97;;
11500;SDS011;5807;51.606;7.624;2022-11-20T08:55:12;26.47;;;18.37;;
11500;SDS011;5807;51.606;7.624;2022-11-20T08:57:39;22.03;;;17.53;;
11500;SDS011;5807;51.606;7.624;2022-11-20T09:00:07;25.40;;;16.57;;
11500;SDS011;5807;51.606;7.624;2022-11-20T09:02:36;23.00;;;16.10;;
11500;SDS011;5807;51.606;7.624;2022-11-20T09:05:03;24.77;;;16.97;;
11500;SDS011;5807;51.606;7.624;2022-11-20T09:07:43;22.90;;;16.77;;
11500;SDS011;5807;51.606;7.624;2022-11-20T09:10:10;23.60;;;16.70;;
11500;SDS011;5807;51.606;7.624;2022-11-20T09:12:38;23.27;;;17.33;;
11500;SDS011;5807;51.606;7.624;2022-11-20T09:15:05;22.67;;;17.43;;
11500;SDS011;5807;51.606;7.624;2022-11-20T09:17:32;22.77;;;17.20;;
11500;SDS011;5807;51.606;7.624;2022-11-20T09:19:59;24.93;;;18.73;;
11500;SDS011;5807;51.606;7.624;2022-11-20T09:22:26;26.37;;;18.20;;
11500;SDS011;5807;51.606;7.624;2022-11-20T09:24:53;27.00;;;19.37;;
11500;SDS011;5807;51.606;7.624;2022-11-20T09:27:19;27.47;;;17.83;;
11500;SDS011;5807;51.606;7.624;2022-11-20T09:29:48;25.07;;;17.13;;
11500;SDS011;5807;51.606;7.624;2022-11-20T09:32:15;19.00;;;14.97;;
11500;SDS011;5807;51.606;7.624;2022-11-20T09:34:42;26.53;;;16.83;;
11500;SDS011;5807;51.606;7.624;2022-11-20T09:37:09;18.63;;;15.97;;
11500;SDS011;5807;51.606;7.624;2022-11-20T09:39:36;21.33;;;15.10;;
11500;SDS011;5807;51.606;7.624;2022-11-20T09:45:02;19.13;;;13.53;;
11500;SDS011;5807;51.606;7.624;2022-11-20T09:47:42;20.33;;;15.03;;
11500;SDS011;5807;51.606;7.624;2022-11-20T09:50:23;18.13;;;13.60;;
11500;SDS011;5807;51.606;7.624;2022-11-20T09:52:58;18.13;;;13.20;;
11500;SDS011;5807;51.606;7.624;2022-11-20T09:55:34;18.43;;;12.70;;
11500;SDS011;5807;51.606;7.624;2022-11-20T09:58:02;17.47;;;13.37;;
11500;SDS011;5807;51.606;7.624;2022-11-20T10:00:34;17.13;;;13.23;;
11500;SDS011;5807;51.606;7.624;2022-11-20T10:03:03;18.80;;;13.60;;
11500;SDS011;5807;51.606;7.624;2022-11-20T10:05:41;17.17;;;12.80;;
11500;SDS011;5807;51.606;7.624;2022-11-20T10:08:14;19.70;;;14.47;;
11500;SDS011;5807;51.606;7.624;2022-11-20T10:10:44;17.27;;;13.40;;
11500;SDS011;5807;51.606;7.624;2022-11-20T10:16:08;17.47;;;13.17;;
11500;SDS011;5807;51.606;7.624;2022-11-20T10:18:50;20.47;;;12.93;;
11500;SDS011;5807;51.606;7.624;2022-11-20T10:21:29;17.10;;;14.17;;
11500;SDS011;5807;51.606;7.624;2022-11-20T10:24:14;17.70;;;14.10;;
11500;SDS011;5807;51.606;7.624;2022-11-20T10:27:02;14.80;;;12.17;;
11500;SDS011;5807;51.606;7.624;2022-11-20T10:29:36;18.23;;;13.30;;
11500;SDS011;5807;51.606;7.624;2022-11-20T10:32:09;12.73;;;9.93;;
11500;SDS011;5807;51.606;7.624;2022-11-20T10:34:43;13.87;;;10.50;;
11500;SDS011;5807;51.606;7.624;2022-11-20T10:37:21;15.97;;;11.23;;
11500;SDS011;5807;51.606;7.624;2022-11-20T10:39:50;14.73;;;11.50;;
11500;SDS011;5807;51.606;7.624;2022-11-20T10:42:24;14.57;;;10.80;;
11500;SDS011;5807;51.606;7.624;2022-11-20T10:44:58;15.27;;;11.27;;
11500;SDS011;5807;51.606;7.624;2022-11-20T10:51:15;17.10;;;13.03;;
11500;SDS011;5807;51.606;7.624;2022-11-20T10:53:51;18.70;;;13.27;;
11500;SDS011;5807;51.606;7.624;2022-11-20T10:56:26;20.20;;;13.03;;
11500;SDS011;5807;51.606;7.624;2022-11-20T10:59:03;15.93;;;12.07;;
11500;SDS011;5807;51.606;7.624;2022-11-20T11:01:46;17.47;;;12.93;;
11500;SDS011;5807;51.606;7.624;2022-11-20T11:04:18;19.63;;;13.70;;
11500;SDS011;5807;51.606;7.624;2022-11-20T11:07:01;17.57;;;13.20;;
11500;SDS011;5807;51.606;7.624;2022-11-20T11:09:36;17.70;;;13.20;;
11500;SDS011;5807;51.606;7.624;2022-11-20T11:12:06;20.57;;;15.00;;
11500;SDS011;5807;51.606;7.624;2022-11-20T11:14:41;22.27;;;16.13;;
11500;SDS011;5807;51.606;7.624;2022-11-20T11:17:18;19.73;;;14.63;;
11500;SDS011;5807;51.606;7.624;2022-11-20T11:19:58;20.80;;;15.07;;
11500;SDS011;5807;51.606;7.624;2022-11-20T11:22:27;15.40;;;12.23;;
11500;SDS011;5807;51.606;7.624;2022-11-20T11:24:55;17.27;;;12.87;;
11500;SDS011;5807;51.606;7.624;2022-11-20T11:27:22;15.97;;;12.70;;
11500;SDS011;5807;51.606;7.624;2022-11-20T11:29:48;16.20;;;12.17;;
11500;SDS011;5807;51.606;7.624;2022-11-20T11:32:17;16.93;;;12.83;;
11500;SDS011;5807;51.606;7.624;2022-11-20T11:34:58;15.30;;;11.73;;
11500;SDS011;5807;51.606;7.624;2022-11-20T11:37:25;18.83;;;13.83;;
11500;SDS011;5807;51.606;7.624;2022-11-20T11:40:01;69.13;;;40.70;;
11500;SDS011;5807;51.606;7.624;2022-11-20T11:42:29;29.27;;;21.60;;
11500;SDS011;5807;51.606;7.624;2022-11-20T11:44:57;17.93;;;13.50;;
11500;SDS011;5807;51.606;7.624;2022-11-20T11:47:31;23.20;;;15.47;;
11500;SDS011;5807;51.606;7.624;2022-11-20T11:50:02;21.27;;;15.00;;
11500;SDS011;5807;51.606;7.624;2022-11-20T11:52:43;17.60;;;12.80;;
11500;SDS011;5807;51.606;7.624;2022-11-20T11:55:13;20.70;;;15.97;;
11500;SDS011;5807;51.606;7.624;2022-11-20T11:57:46;26.10;;;18.80;;
11500;SDS011;5807;51.606;7.624;2022-11-20T12:00:16;20.97;;;14.87;;
11500;SDS011;5807;51.606;7.624;2022-11-20T12:02:49;22.80;;;17.63;;
11500;SDS011;5807;51.606;7.624;2022-11-20T12:05:24;23.43;;;16.20;;
11500;SDS011;5807;51.606;7.624;2022-11-20T12:07:56;25.77;;;19.47;;
11500;SDS011;5807;51.606;7.624;2022-11-20T12:10:33;18.07;;;13.20;;
11500;SDS011;5807;51.606;7.624;2022-11-20T12:13:09;15.57;;;12.50;;
11500;SDS011;5807;51.606;7.624;2022-11-20T12:15:42;19.97;;;13.67;;
11500;SDS011;5807;51.606;7.624;2022-11-20T12:18:14;15.40;;;11.50;;
11500;SDS011;5807;51.606;7.624;2022-11-20T12:20:44;15.97;;;11.37;;
11500;SDS011;5807;51.606;7.624;2022-11-20T12:23:21;13.13;;;9.13;;
11500;SDS011;5807;51.606;7.624;2022-11-20T12:25:54;9.10;;;8.10;;
11500;SDS011;5807;51.606;7.624;2022-11-20T12:28:31;9.10;;;7.70;;
11500;SDS011;5807;51.606;7.624;2022-11-20T12:31:14;9.93;;;8.07;;
11500;SDS011;5807;51.606;7.624;2022-11-20T12:34:06;9.80;;;8.00;;
11500;SDS011;5807;51.606;7.624;2022-11-20T12:36:48;9.30;;;7.67;;
11500;SDS011;5807;51.606;7.624;2022-11-20T12:42:31;11.03;;;8.00;;
11500;SDS011;5807;51.606;7.624;2022-11-20T12:45:29;11.13;;;9.20;;
11500;SDS011;5807;51.606;7.624;2022-11-20T12:51:21;8.70;;;7.30;;
11500;SDS011;5807;51.606;7.624;2022-11-20T12:54:11;10.20;;;7.87;;
11500;SDS011;5807;51.606;7.624;2022-11-20T12:56:55;8.80;;;7.63;;
11500;SDS011;5807;51.606;7.624;2022-11-20T12:59:30;9.27;;;6.97;;
11500;SDS011;5807;51.606;7.624;2022-11-20T13:02:10;9.47;;;8.10;;
11500;SDS011;5807;51.606;7.624;2022-11-20T13:04:49;10.37;;;8.93;;
11500;SDS011;5807;51.606;7.624;2022-11-20T13:07:30;12.60;;;8.73;;
11500;SDS011;5807;51.606;7.624;2022-11-20T13:09:59;12.27;;;9.53;;
11500;SDS011;5807;51.606;7.624;2022-11-20T13:12:30;11.30;;;8.50;;
11500;SDS011;5807;51.606;7.624;2022-11-20T13:15:02;13.17;;;10.20;;
11500;SDS011;5807;51.606;7.624;2022-11-20T13:17:37;13.27;;;10.63;;
11500;SDS011;5807;51.606;7.624;2022-11-20T13:20:12;12.83;;;9.80;;
11500;SDS011;5807;51.606;7.624;2022-11-20T13:22:44;11.17;;;9.23;;
11500;SDS011;5807;51.606;7.624;2022-11-20T13:25:21;12.83;;;10.07;;
11500;SDS011;5807;51.606;7.624;2022-11-20T13:27:51;17.63;;;15.57;;
11500;SDS011;5807;51.606;7.624;2022-11-20T13:30:19;16.17;;;12.03;;
11500;SDS011;5807;51.606;7.624;2022-11-20T13:32:50;17.83;;;14.63;;
11500;SDS011;5807;51.606;7.624;2022-11-20T13:35:26;18.53;;;13.07;;
11500;SDS011;5807;51.606;7.624;2022-11-20T13:37:59;15.10;;;11.73;;
11500;SDS011;5807;51.606;7.624;2022-11-20T13:40:28;17.20;;;12.57;;
11500;SDS011;5807;51.606;7.624;2022-11-20T13:43:01;18.70;;;13.50;;
11500;SDS011;5807;51.606;7.624;2022-11-20T13:45:33;15.60;;;12.53;;
11500;SDS011;5807;51.606;7.624;2022-11-20T13:48:01;17.60;;;13.53;;
11500;SDS011;5807;51.606;7.624;2022-11-20T13:50:40;18.47;;;13.47;;
11500;SDS011;5807;51.606;7.624;2022-11-20T13:53:21;17.83;;;12.20;;
11500;SDS011;5807;51.606;7.624;2022-11-20T13:56:15;13.93;;;10.80;;
11500;SDS011;5807;51.606;7.624;2022-11-20T13:58:53;14.93;;;12.47;;
11500;SDS011;5807;51.606;7.624;2022-11-20T14:01:29;15.00;;;11.27;;
11500;SDS011;5807;51.606;7.624;2022-11-20T14:03:57;16.30;;;12.83;;
11500;SDS011;5807;51.606;7.624;2022-11-20T14:06:25;15.90;;;12.77;;
11500;SDS011;5807;51.606;7.624;2022-11-20T14:08:53;14.33;;;11.47;;
11500;SDS011;5807;51.606;7.624;2022-11-20T14:11:21;14.83;;;11.63;;
11500;SDS011;5807;51.606;7.624;2022-11-20T14:13:56;15.40;;;12.40;;
11500;SDS011;5807;51.606;7.624;2022-11-20T14:16:25;15.20;;;12.40;;
11500;SDS011;5807;51.606;7.624;2022-11-20T14:18:54;17.67;;;12.60;;
11500;SDS011;5807;51.606;7.624;2022-11-20T14:21:22;24.07;;;15.70;;
11500;SDS011;5807;51.606;7.624;2022-11-20T14:23:52;21.37;;;14.33;;
11500;SDS011;5807;51.606;7.624;2022-11-20T14:26:21;16.37;;;11.87;;
11500;SDS011;5807;51.606;7.624;2022-11-20T14:28:48;15.37;;;11.57;;
11500;SDS011;5807;51.606;7.624;2022-11-20T14:31:21;17.23;;;12.60;;
11500;SDS011;5807;51.606;7.624;2022-11-20T14:33:50;17.40;;;12.13;;
11500;SDS011;5807;51.606;7.624;2022-11-20T14:36:19;15.67;;;12.13;;
11500;SDS011;5807;51.606;7.624;2022-11-20T14:38:48;16.97;;;12.87;;
11500;SDS011;5807;51.606;7.624;2022-11-20T14:41:17;18.00;;;13.00;;
11500;SDS011;5807;51.606;7.624;2022-11-20T14:43:46;15.83;;;12.20;;
11500;SDS011;5807;51.606;7.624;2022-11-20T14:46:16;17.93;;;13.83;;
11500;SDS011;5807;51.606;7.624;2022-11-20T14:48:46;17.63;;;13.43;;
11500;SDS011;5807;51.606;7.624;2022-11-20T14:51:28;19.47;;;13.77;;
11500;SDS011;5807;51.606;7.624;2022-11-20T14:54:07;20.10;;;13.93;;
11500;SDS011;5807;51.606;7.624;2022-11-20T14:56:34;17.57;;;12.10;;
11500;SDS011;5807;51.606;7.624;2022-11-20T14:59:01;19.83;;;13.27;;
11500;SDS011;5807;51.606;7.624;2022-11-20T15:01:29;20.17;;;12.97;;
11500;SDS011;5807;51.606;7.624;2022-11-20T15:04:04;17.37;;;12.40;;
11500;SDS011;5807;51.606;7.624;2022-11-20T15:06:32;17.50;;;13.20;;
11500;SDS011;5807;51.606;7.624;2022-11-20T15:08:59;17.10;;;13.17;;
11500;SDS011;5807;51.606;7.624;2022-11-20T15:11:29;22.13;;;15.20;;
11500;SDS011;5807;51.606;7.624;2022-11-20T15:13:57;16.23;;;12.30;;
11500;SDS011;5807;51.606;7.624;2022-11-20T15:16:28;17.40;;;12.67;;